This is the latest recevied weather packets stored in our database for station/object R1ZAAG-14. If no packets are shown the sender has not sent any weather packets the latest 10 day(s).
| Time | Temp. | Humidity | Pressure | Rain* | Wind** | Luminosity | Snow |
|---|---|---|---|---|---|---|---|
| 1777989384 | 6.11° C | 60% | 997 hPa | - | - | - | - |
| 1777989379 | 6.11° C | 60% | 997 hPa | - | - | - | - |
| 1777988484 | 7.78° C | 56% | 996.9 hPa | - | - | - | - |
| 1777988478 | 7.78° C | 56% | 996.9 hPa | - | - | - | - |
| 1777987582 | 9.44° C | 52% | 996.7 hPa | - | - | - | - |
| 1777987577 | 9.44° C | 52% | 996.7 hPa | - | - | - | - |
| 1777986681 | 8.33° C | 56% | 996.5 hPa | - | - | - | - |
| 1777986675 | 8.33° C | 56% | 996.5 hPa | - | - | - | - |
| 1777985779 | 7.78° C | 58% | 996.5 hPa | - | - | - | - |
| 1777985774 | 7.78° C | 58% | 996.5 hPa | - | - | - | - |
| 1777984880 | 6.67° C | 60% | 996.4 hPa | - | - | - | - |
| 1777984874 | 6.67° C | 60% | 996.4 hPa | - | - | - | - |
| 1777983978 | 7.78° C | 59% | 996.3 hPa | - | - | - | - |
| 1777983973 | 7.78° C | 59% | 996.3 hPa | - | - | - | - |
| 1777983077 | 7.78° C | 58% | 996.1 hPa | - | - | - | - |
| 1777983073 | 7.78° C | 58% | 996.1 hPa | - | - | - | - |
| 1777982176 | 7.78° C | 58% | 995.9 hPa | - | - | - | - |
| 1777982172 | 7.78° C | 58% | 995.9 hPa | - | - | - | - |
| 1777981278 | 9.44° C | 55% | 995.8 hPa | - | - | - | - |
| 1777981271 | 9.44° C | 55% | 995.8 hPa | - | - | - | - |
| 1777980377 | 8.33° C | 57% | 995.6 hPa | - | - | - | - |
| 1777980370 | 8.33° C | 57% | 995.6 hPa | - | - | - | - |
| 1777979475 | 8.33° C | 56% | 995.4 hPa | - | - | - | - |
| 1777979468 | 8.33° C | 56% | 995.4 hPa | - | - | - | - |
| 1777978578 | 8.33° C | 57% | 995.3 hPa | - | - | - | - |
* Rain since midnight (hover to see other rain measurements)
** Current wind speed in m/s (hover to see current wind gust speed)